Latest Weather Observations for Kiama

IDN60801

Issued at 10:32 am EST Monday 21 August 2017 (issued every 30 minutes, with the page automatically refreshed every 10 minutes)

About weather observations | Map of weather stations | Latest weather observations for NSW | Other Formats
Station Details ID: 068242 Name: KIAMA (BOMBO HEADLAND) Lat: -34.65 Lon: 150.86 Height: 15.5 m
Data from the previous 72 hours. | See also: Recent months at Kiama
Date/Time
EST
Temp
°C
App
Temp
°C
Dew
Point
°C
Rel
Hum
%
Delta-T
°C
Wind Press
QNH
hPa
Press
MSL
hPa
Rain since
9am
mm
Dir  Spd
km/h
Gust
km/h
Spd
kts
Gust
kts
21/10:30am 14.9 12.4 6.7 58 4.0 N 9 15 5 8 - - 0.0
21/10:00am 14.3 11.9 7.1 62 3.5 N 9 13 5 7 - - 0.0
21/09:30am 13.8 10.2 6.9 63 3.3 NNW 15 20 8 11 - - 0.0
21/09:00am 13.4 10.6 7.0 65 3.1 NNW 11 17 6 9 - - 0.0
21/08:30am 13.3 10.1 6.9 65 3.1 NW 13 19 7 10 - - 0.0
21/08:00am 11.9 10.0 6.8 71 2.4 NNW 6 9 3 5 - - 0.0
21/07:30am 11.3 9.7 6.4 72 2.3 NNW 4 6 2 3 - - 0.0
21/07:00am 11.3 8.7 6.0 70 2.5 NW 9 13 5 7 - - 0.0
21/06:30am 10.7 8.0 5.7 71 2.3 WNW 9 9 5 5 - - 0.0
21/06:00am 11.1 8.1 5.8 70 2.5 NW 11 15 6 8 - - 0.0
21/05:30am 10.9 8.1 5.2 68 2.6 NW 9 11 5 6 - - 0.0
21/05:00am 11.5 9.3 5.4 66 2.8 NW 6 9 3 5 - - 0.0
21/04:30am 11.4 9.1 4.8 64 3.0 WNW 6 9 3 5 - - 0.0
21/04:00am 11.6 8.7 4.6 62 3.2 WNW 9 13 5 7 - - 0.0
21/03:30am 11.3 8.4 4.7 64 3.0 WNW 9 11 5 6 - - 0.0
21/03:00am 11.1 7.9 5.2 67 2.7 W 11 13 6 7 - - 0.0
21/02:30am 11.0 8.0 6.0 71 2.3 WNW 11 13 6 7 - - 0.0
21/02:00am 10.6 7.7 6.4 75 2.0 WNW 11 13 6 7 - - 0.0
21/01:30am 10.1 6.7 6.1 76 1.9 WNW 13 15 7 8 - - 0.0
21/01:00am 10.0 7.0 6.0 76 1.8 WNW 11 11 6 6 - - 0.0
21/12:30am 9.8 6.8 5.8 76 1.8 WNW 11 13 6 7 - - 0.0
21/12:00am 9.6 6.5 5.6 76 1.8 WNW 11 15 6 8 - - 0.0
 
Date/Time
EST
Temp
°C
App
Temp
°C
Dew
Point
°C
Rel
Hum
%
Delta-T
°C
Wind Press
QNH
hPa
Press
MSL
hPa
Rain since
9am
mm
Dir  Spd
km/h
Gust
km/h
Spd
kts
Gust
kts
20/11:30pm 10.2 7.5 5.8 74 2.0 W 9 13 5 7 - - 0.0
20/11:00pm 9.8 7.1 5.4 74 2.0 W 9 11 5 6 - - 0.0
20/10:30pm 9.7 6.9 5.3 74 2.0 W 9 13 5 7 - - 0.0
20/10:00pm 9.4 6.1 4.8 73 2.1 W 11 13 6 7 - - 0.0
20/09:30pm 9.7 6.8 4.7 71 2.2 W 9 11 5 6 - - 0.0
20/09:00pm 9.8 6.6 5.2 73 2.1 W 11 15 6 8 - - 0.0
20/08:30pm 9.6 6.8 5.0 73 2.1 W 9 13 5 7 - - 0.0
20/08:00pm 10.1 7.7 5.3 72 2.2 W 7 11 4 6 - - 0.0
20/07:30pm 11.6 9.5 6.7 72 2.3 SW 7 13 4 7 - - 0.0
20/07:00pm 12.1 9.7 7.0 71 2.4 SSW 9 11 5 6 - - 0.0
20/06:30pm 12.1 8.8 6.6 69 2.6 SSW 13 17 7 9 - - 0.0
20/06:00pm 12.4 8.7 6.5 67 2.8 SSW 15 19 8 10 - - 0.0
20/05:30pm 12.6 8.9 6.4 66 2.9 SSW 15 19 8 10 - - 0.0
20/05:00pm 13.1 8.5 6.7 65 3.1 S 20 24 11 13 - - 0.0
20/04:30pm 13.4 8.8 6.7 64 3.2 S 20 26 11 14 - - 0.0
20/04:00pm 13.8 9.4 7.6 66 3.1 S 20 28 11 15 - - 0.0
20/03:30pm 13.8 8.6 7.1 64 3.3 S 24 33 13 18 - - 0.0
20/03:00pm 14.0 9.1 6.8 62 3.5 S 22 30 12 16 - - 0.0
20/02:30pm 13.6 8.2 6.2 61 3.5 S 24 30 13 16 - - 0.0
20/02:00pm 13.8 8.0 6.2 60 3.6 S 26 35 14 19 - - 0.0
20/01:30pm 13.9 8.2 6.7 62 3.5 S 26 35 14 19 - - 0.0
20/01:00pm 13.2 7.1 6.8 65 3.1 S 28 39 15 21 - - 0.0
20/12:30pm 13.5 6.6 6.4 62 3.4 SSW 32 41 17 22 - - 0.0
20/12:00pm 13.3 6.2 5.7 60 3.6 SSW 32 46 17 25 - - 0.0
20/11:30am 13.2 6.1 5.6 60 3.6 S 32 46 17 25 - - 0.0
20/11:00am 13.2 6.9 5.6 60 3.6 SSW 28 43 15 23 - - 0.0
20/10:30am 12.6 5.2 4.1 56 3.8 SSW 32 41 17 22 - - 0.0
20/10:00am 12.7 6.6 4.7 58 3.7 SSW 26 37 14 20 - - 0.0
20/09:53am 12.5 5.9 4.0 56 3.8 SSW 28 48 15 26 - - 0.0
20/09:30am 12.2 5.2 3.9 57 3.7 SSW 30 37 16 20 - - 0.0
20/09:00am 11.8 5.5 3.6 57 3.6 SSW 26 39 14 21 - - 0.0
20/08:30am 11.2 4.3 2.5 55 3.7 SSW 28 39 15 21 - - 0.0
20/08:00am 10.9 3.5 2.0 54 3.8 SSW 30 44 16 24 - - 0.0
20/07:30am 10.3 3.9 0.9 52 3.9 SW 24 37 13 20 - - 0.0
20/07:00am 10.0 4.4 1.4 55 3.6 SW 20 32 11 17 - - 0.0
20/06:30am 9.8 3.1 1.2 55 3.5 SW 26 39 14 21 - - 0.0
20/06:00am 9.9 2.4 1.3 55 3.6 SSW 30 37 16 20 - - 0.0
20/05:30am 9.7 2.6 1.1 55 3.5 SSW 28 41 15 22 - - 0.0
20/05:00am 9.7 2.5 0.6 53 3.7 SW 28 43 15 23 - - 0.0
20/04:34am 9.7 2.5 0.6 53 3.7 SSW 28 46 15 25 - - 0.0
20/04:30am 9.8 3.1 1.5 56 3.4 SSW 26 35 14 19 - - 0.0
20/04:00am 9.9 2.3 0.8 53 3.7 SSW 30 46 16 25 - - 0.0
20/03:30am 10.0 1.9 1.1 54 3.7 SSW 33 46 18 25 - - 0.0
20/03:00am 10.1 0.8 0.7 52 3.8 SSW 39 52 21 28 - - 0.0
20/02:31am 10.1 1.4 -0.4 48 4.2 SSW 35 54 19 29 - - 0.0
20/02:30am 10.2 1.6 0.5 51 4.0 SSW 35 46 19 25 - - 0.0
20/02:00am 10.2 1.7 0.8 52 3.9 SSW 35 48 19 26 - - 0.0
20/01:30am 10.3 1.4 0.6 51 4.0 SSW 37 52 20 28 - - 0.0
20/01:00am 10.3 0.9 0.1 49 4.1 SSW 39 52 21 28 - - 0.0
20/12:30am 10.3 1.6 -0.5 47 4.3 SSW 35 50 19 27 - - 0.0
20/12:00am 10.4 1.6 -1.0 45 4.5 SSW 35 50 19 27 - - 0.0
 
Date/Time
EST
Temp
°C
App
Temp
°C
Dew
Point
°C
Rel
Hum
%
Delta-T
°C
Wind Press
QNH
hPa
Press
MSL
hPa
Rain since
9am
mm
Dir  Spd
km/h
Gust
km/h
Spd
kts
Gust
kts
19/11:30pm 10.6 2.4 0.3 49 4.2 SSW 33 48 18 26 - - 0.0
19/11:00pm 10.8 2.2 0.0 47 4.4 SSW 35 50 19 27 - - 0.0
19/10:30pm 11.0 2.8 0.4 48 4.3 SSW 33 44 18 24 - - 0.0
19/10:00pm 11.1 3.1 1.4 51 4.1 SSW 33 46 18 25 - - 0.0
19/09:30pm 11.3 3.2 1.0 49 4.3 SSW 33 43 18 23 - - 0.0
19/09:00pm 11.4 4.1 2.7 55 3.8 SSW 30 37 16 20 - - 0.0
19/08:30pm 11.5 5.8 4.9 64 3.0 SSW 24 33 13 18 - - 0.0
19/08:00pm 11.8 6.0 4.5 61 3.3 SSW 24 32 13 17 - - 0.0
19/07:30pm 11.9 6.1 4.4 60 3.4 SSW 24 33 13 18 - - 0.0
19/07:00pm 12.3 6.3 5.2 62 3.3 SSW 26 43 14 23 - - 0.0
19/06:30pm 12.4 6.3 4.9 60 3.4 SSW 26 39 14 21 - - 0.0
19/06:03pm 12.7 4.2 5.1 60 3.5 SSW 39 57 21 31 - - 0.0
19/06:00pm 12.8 3.2 4.5 57 3.8 SSW 44 57 24 31 - - 0.0
19/05:39pm 12.8 4.7 5.2 60 3.5 SSW 37 59 20 32 - - 0.0
19/05:30pm 12.8 3.9 5.2 60 3.5 SSW 41 54 22 29 - - 0.0
19/05:00pm 12.9 3.5 5.3 60 3.5 SSW 44 57 24 31 - - 0.0
19/04:40pm 13.1 3.9 5.5 60 3.6 SSW 43 61 23 33 - - 0.0
19/04:30pm 13.2 3.9 5.9 61 3.4 S 44 57 24 31 - - 0.0
19/04:00pm 13.3 3.8 4.7 56 4.0 SSW 44 57 24 31 - - 0.0
19/03:30pm 13.6 5.0 4.7 55 4.1 S 39 54 21 29 - - 0.0
19/03:00pm 13.7 3.9 3.5 50 4.6 SSW 44 57 24 31 - - 0.0
19/02:30pm 13.8 3.5 2.7 47 4.9 S 46 59 25 32 - - 0.0
19/02:00pm 14.2 4.6 3.4 48 4.9 SSW 43 57 23 31 - - 0.0
19/01:32pm 14.0 5.3 2.3 45 5.1 SSW 37 57 20 31 - - 0.0
19/01:30pm 14.0 5.6 1.6 43 5.4 SSW 35 46 19 25 - - 0.0
19/01:00pm 13.5 3.5 2.1 46 5.0 SSW 44 63 24 34 - - 0.0
19/12:30pm 13.4 3.4 2.3 47 4.9 SSW 44 63 24 34 - - 0.0
19/12:02pm 13.3 2.2 2.2 47 4.8 SSW 50 69 27 37 - - 0.0
19/12:00pm 13.3 2.2 2.5 48 4.7 SSW 50 69 27 37 - - 0.0
19/11:31am 13.0 2.5 1.7 46 4.9 SSW 46 65 25 35 - - 0.0
19/11:30am 12.9 2.0 1.6 46 4.8 SSW 48 65 26 35 - - 0.0
19/11:00am 12.7 1.4 1.1 45 4.9 SSW 50 70 27 38 - - 0.0
19/10:30am 12.4 2.2 -0.1 42 5.1 SSW 43 65 23 35 - - 0.0
19/10:06am 12.2 2.5 0.3 44 4.9 SSW 41 74 22 40 - - 0.0
19/10:00am 12.5 4.0 0.9 45 4.9 SSW 35 54 19 29 - - 0.0
19/09:30am 12.0 3.0 -0.2 43 5.0 SW 37 65 20 35 - - 0.0
19/09:00am 11.6 2.5 -0.5 43 4.9 SW 37 56 20 30 - - 0.0
19/08:34am 11.3 3.1 -0.8 43 4.8 SW 32 50 17 27 - - 0.0
19/08:30am 11.3 3.1 -0.8 43 4.8 SW 32 44 17 24 - - 0.0
19/08:00am 10.9 2.4 -1.8 41 4.9 SW 33 56 18 30 - - 0.0
19/07:30am 10.8 1.5 -1.9 41 4.9 SW 37 57 20 31 - - 0.0
19/07:15am 10.6 2.1 -2.1 41 4.9 SW 33 52 18 28 - - 0.0
19/07:00am 10.5 1.9 -2.8 39 5.0 SW 33 52 18 28 - - 0.0
19/06:30am 10.4 2.0 -1.0 45 4.5 SW 33 57 18 31 - - 0.0
19/06:00am 10.3 2.0 -1.7 43 4.6 SW 32 57 17 31 - - 0.0
19/05:55am 10.4 3.0 -1.0 45 4.5 SW 28 50 15 27 - - 0.0
19/05:30am 10.2 3.1 -0.9 46 4.4 SW 26 43 14 23 - - 0.0
19/05:08am 10.2 2.9 -0.3 48 4.2 WSW 28 50 15 27 - - 0.0
19/05:00am 10.0 3.0 -0.5 48 4.2 WSW 26 43 14 23 - - 0.0
19/04:57am 10.0 2.6 -0.8 47 4.3 SW 28 46 15 25 - - 0.0
19/04:30am 10.0 3.1 0.1 50 4.0 WSW 26 37 14 20 - - 0.0
19/04:00am 9.9 2.7 0.5 52 3.8 WSW 28 44 15 24 - - 0.0
19/03:44am 9.7 2.6 1.1 55 3.5 WSW 28 46 15 25 - - 0.0
19/03:30am 9.8 3.4 1.2 55 3.5 WSW 24 37 13 20 - - 0.0
19/03:00am 10.2 2.3 0.8 52 3.9 WSW 32 50 17 27 - - 0.0
19/02:41am 10.3 3.1 0.6 51 4.0 WSW 28 50 15 27 - - 0.0
19/02:30am 10.5 3.7 0.5 50 4.1 WSW 26 46 14 25 - - 0.0
19/02:07am 11.2 3.8 -0.6 44 4.7 SW 28 50 15 27 - - 0.0
19/02:00am 11.0 4.5 0.4 48 4.3 WSW 24 39 13 21 - - 0.0
19/01:45am 10.4 2.8 0.7 51 4.0 WSW 30 48 16 26 - - 0.0
19/01:30am 10.4 1.5 1.0 52 3.9 WSW 37 54 20 29 - - 0.0
19/01:00am 10.6 2.5 1.2 52 3.9 WSW 33 56 18 30 - - 0.0
19/12:30am 10.8 2.6 0.5 49 4.2 WSW 33 52 18 28 - - 0.0
19/12:00am 10.9 2.7 0.6 49 4.2 WSW 33 56 18 30 - - 0.0
 
Date/Time
EST
Temp
°C
App
Temp
°C
Dew
Point
°C
Rel
Hum
%
Delta-T
°C
Wind Press
QNH
hPa
Press
MSL
hPa
Rain since
9am
mm
Dir  Spd
km/h
Gust
km/h
Spd
kts
Gust
kts
18/11:30pm 10.8 1.9 0.8 50 4.1 WSW 37 57 20 31 - - 0.0
18/11:00pm 11.1 1.8 0.8 49 4.3 WSW 39 59 21 32 - - 0.0
18/10:31pm 11.3 1.1 0.7 48 4.4 WSW 44 63 24 34 - - 0.0
18/10:30pm 11.3 0.7 0.7 48 4.4 WSW 46 63 25 34 - - 0.0
18/10:00pm 11.4 0.5 1.1 49 4.3 WSW 48 72 26 39 - - 0.0
18/09:30pm 11.5 1.3 1.2 49 4.3 WSW 44 67 24 36 - - 0.0
18/09:00pm 11.6 1.6 1.0 48 4.4 WSW 43 65 23 35 - - 0.0
18/08:30pm 11.7 0.4 1.1 48 4.4 W 50 83 27 45 - - 0.0
18/08:00pm 12.1 1.2 1.1 47 4.6 WSW 48 69 26 37 - - 0.0
18/07:30pm 12.2 2.1 1.5 48 4.5 WSW 44 72 24 39 - - 0.0
18/07:00pm 12.6 2.4 1.0 45 4.9 WSW 44 67 24 36 - - 0.0
18/06:30pm 12.8 2.6 -0.1 41 5.3 WSW 43 65 23 35 - - 0.0
18/06:00pm 12.8 4.7 0.9 44 5.0 WSW 33 52 18 28 - - 0.0
18/05:30pm 13.2 3.6 0.9 43 5.2 SW 41 72 22 39 - - 0.0
18/05:21pm 13.3 4.3 0.3 41 5.4 WSW 37 72 20 39 - - 0.0
18/05:06pm 13.7 6.5 0.4 40 5.6 SW 28 52 15 28 - - 0.0
18/05:00pm 13.8 6.6 0.8 41 5.5 SW 28 43 15 23 - - 0.0
18/04:30pm 14.3 5.0 0.6 39 5.8 WSW 39 61 21 33 - - 0.0
18/04:00pm 14.7 3.2 -0.2 36 6.2 W 50 72 27 39 - - 0.0
18/03:30pm 15.2 6.1 -0.5 34 6.6 W 37 59 20 32 - - 0.0
18/03:00pm 15.6 7.2 -1.0 32 6.9 WSW 33 52 18 28 - - 0.0
18/02:30pm 16.0 7.6 -0.7 32 7.0 W 33 59 18 32 - - 0.0
18/02:00pm 15.9 7.2 -0.8 32 7.0 WSW 35 65 19 35 - - 0.0
18/01:30pm 16.3 7.2 -0.4 32 7.1 WSW 37 57 20 31 - - 0.0
18/01:00pm 16.1 6.7 -0.2 33 6.9 WSW 39 65 21 35 - - 0.0
18/12:30pm 15.7 6.2 -0.5 33 6.8 W 39 67 21 36 - - 0.0
18/12:05pm 15.5 6.1 -0.3 34 6.7 WSW 39 83 21 45 - - 0.0
18/12:00pm 15.7 6.7 -0.1 34 6.7 WSW 37 61 20 33 - - 0.0
18/11:30am 15.4 5.6 -0.4 34 6.6 W 41 63 22 34 - - 0.0
18/11:00am 14.8 5.3 -0.9 34 6.5 WSW 39 63 21 34 - - 0.0

Other Formats:

Comma delimited format used in spreadsheet applications
http://www.bom.gov.au/fwo/IDN60801/IDN60801.95749.axf

JavaScript Object Notation format (JSON) in row-major order
http://www.bom.gov.au/fwo/IDN60801/IDN60801.95749.json